Home > Products > Valid Products > TAF

000
FTUS43 KMQT 231100
TAFCMX
TAF
KCMX 231133Z 2312/2412 11009KT P6SM -DZ OVC007
     FM231700 16007KT 3SM -DZ BR OVC004
     FM240000 VRB03KT 1SM -RA BR OVC003
     FM241000 36014KT 1SM -RA OVC003=



000
FTUS43 KMQT 231100
TAFSAW
TAF
KSAW 231133Z 2312/2412 16012KT 1/4SM -DZ FG OVC002
     FM231700 18012KT 1SM -DZ BR OVC003
     FM240000 16006KT 1/2SM -RA FG OVC002
     FM241000 02005KT 1/2SM -RA FG OVC002
      AMD LTD TO CLD VIS AND WIND 2403/2411=



000
FTUS43 KMQT 231000 AAA
TAFSAW
TAF AMD
KSAW 231037Z 2311/2406 16010KT 1/4SM FG OVC002
     FM231600 18012KT 1SM -DZ BR OVC003
     FM240000 18006KT 1SM -RA BR OVC003
      AMD LTD TO CLD VIS AND WIND TIL 231100=



000
FTUS43 KMQT 230500
TAFSAW
TAF
KSAW 230536Z 2306/2406 18008KT 5SM BR OVC007
     FM230700 18008KT 3SM BR OVC005
     FM231100 18012KT 1SM -DZ BR OVC003
     FM240000 18006KT 1SM -RA BR OVC003
      AMD LTD TO CLD VIS AND WIND TIL 231100=



000
FTUS43 KMQT 230500
TAFCMX
TAF
KCMX 230536Z 2306/2406 14009KT P6SM OVC007
     FM230900 15004KT 5SM -DZ BR OVC005
     FM231500 17008KT 3SM -DZ BR OVC004
     FM240000 VRB03KT 1SM -RA BR OVC003=



000
FTUS43 KMQT 230400 AAA
TAFSAW
TAF AMD
KSAW 230415Z 2304/2324 22004KT P6SM OVC008
     FM230700 18006KT 2SM BR OVC003
     FM231100 18012KT 1SM -DZ BR OVC003
      AMD LTD TO CLD VIS AND WIND 2303/2311=



000
FTUS43 KMQT 230400 AAB
TAFCMX
TAF AMD
KCMX 230415Z 2304/2324 14006KT P6SM OVC009
     FM230900 15004KT 5SM -DZ BR OVC007
     FM231400 16008KT 2SM -DZ BR OVC004=



000
FTUS43 KMQT 230300 AAA
TAFCMX
TAF AMD
KCMX 230301Z 2303/2324 14006KT P6SM OVC010
     FM230900 15004KT 5SM -DZ BR OVC007
     FM231400 16008KT 2SM -DZ BR OVC004=



000
FTUS43 KMQT 222300
TAFSAW
TAF
KSAW 222320Z 2300/2324 22004KT P6SM OVC010
     FM230700 18006KT 2SM BR OVC003
     FM231100 18012KT 1SM -DZ BR OVC003
      AMD LTD TO CLD VIS AND WIND 2303/2311=



000
FTUS43 KMQT 222300
TAFCMX
TAF
KCMX 222320Z 2300/2324 25005KT P6SM OVC015
     FM230100 20006KT P6SM OVC010
     FM230900 15004KT 5SM -DZ BR OVC007
     FM231400 16008KT 2SM -DZ BR OVC004=



000
FTUS43 KMQT 221700
TAFCMX
TAF
KCMX 221722Z 2218/2318 25010KT P6SM BKN015
     FM230100 21006KT P6SM OVC010
     FM230900 15004KT P6SM OVC007
     FM231400 16008KT 3SM BR OVC004=



000
FTUS43 KMQT 221700
TAFSAW
TAF
KSAW 221722Z 2218/2318 20011KT P6SM OVC015
     FM230000 22004KT P6SM OVC010
     FM230700 18006KT 2SM BR OVC003
     FM231100 18012KT 1SM -DZ BR OVC003
      AMD LTD TO CLD VIS AND WIND 2303/2311=



000
FTUS43 KMQT 221200 AAA
TAFSAW
TAF AMD
KSAW 221246Z 2213/2312 20011KT P6SM OVC015 WS015/25035KT
     FM221400 22014KT P6SM OVC010
     FM230000 22004KT P6SM OVC010
     FM230700 18006KT 1SM BR OVC003
      AMD LTD TO CLD VIS AND WIND 2303/2311=



000
FTUS43 KMQT 221200 AAA
TAFCMX
TAF AMD
KCMX 221244Z 2213/2312 25013KT P6SM BKN020
     FM221400 25010KT P6SM BKN015
     FM230100 21006KT P6SM OVC010
     FM230900 15004KT 3SM BR OVC003=



000
FTUS43 KMQT 221100
TAFSAW
TAF
KSAW 221138Z 2212/2312 21013G20KT P6SM OVC014 WS015/24045KT
     FM221400 22014KT P6SM OVC010
     FM230000 22004KT P6SM OVC010
     FM230700 18006KT 1SM BR OVC003
      AMD LTD TO CLD VIS AND WIND 2303/2311=



000
FTUS43 KMQT 221100
TAFCMX
TAF
KCMX 221138Z 2212/2312 24013G20KT P6SM SCT020
      TEMPO 2212/2214 BKN020
     FM221400 25010KT P6SM BKN015
     FM230100 21006KT P6SM OVC010
     FM230900 15004KT 3SM BR OVC003=



000
FTUS43 KMQT 221100 AAB
TAFSAW
TAF AMD
KSAW 221101Z 2211/2306 22013KT P6SM SCT018 BKN120 WS015/24045KT
      TEMPO 2211/2213 BKN018
     FM221300 21013G20KT P6SM OVC014
     FM221600 22014G25KT P6SM BKN010
     FM230000 22004KT P6SM OVC010
      AMD LTD TO CLD VIS AND WIND TIL 221100=



000
FTUS43 KMQT 221000 AAA
TAFCMX
TAF AMD
KCMX 221018Z 2210/2306 24013G20KT P6SM BKN100
      TEMPO 2211/2212 BKN020
     FM221200 24013G20KT P6SM BKN020
     FM221400 25014G22KT P6SM OVC015
     FM230100 21006KT P6SM OVC010=



000
FTUS43 KMQT 220800 AAA
TAFSAW
TAF AMD
KSAW 220815Z 2208/2306 21014G21KT P6SM SCT018 BKN120 WS015/24045KT
      TEMPO 2208/2210 BKN018
     FM221000 21013G20KT P6SM OVC014 WS015/24045KT
     FM221400 22014G25KT P6SM BKN010
     FM230000 22004KT P6SM OVC010
      AMD LTD TO CLD VIS AND WIND TIL 221100=



000
FTUS43 KMQT 220500
TAFCMX
TAF
KCMX 220539Z 2206/2306 22015G22KT P6SM BKN090
     FM221000 24013G21KT P6SM OVC025
     FM221200 25014G22KT P6SM OVC010
     FM230100 21006KT P6SM OVC010=



000
FTUS43 KMQT 220500
TAFSAW
TAF
KSAW 220539Z 2206/2306 20014G22KT P6SM BKN090
     FM220800 21014G21KT P6SM OVC008 WS015/24045KT
     FM221400 22014G25KT P6SM BKN010
     FM230000 22004KT P6SM OVC010
      AMD LTD TO CLD VIS AND WIND TIL 221100=



000
FTUS43 KMQT 212300
TAFCMX
TAF
KCMX 212320Z 2200/2224 21012G20KT P6SM BKN090
     FM220400 22015G22KT P6SM BKN090
     FM221000 24013G21KT P6SM OVC025
     FM221200 25014G22KT P6SM OVC010=



000
FTUS43 KMQT 212300
TAFSAW
TAF
KSAW 212320Z 2200/2224 20014G22KT P6SM BKN090
     FM220800 21014G21KT P6SM -FZDZ OVC008 WS015/24045KT
     FM221400 22014G25KT P6SM BKN010
      AMD LTD TO CLD VIS AND WIND 2203/2211=



000
FTUS43 KMQT 211900 CCA
TAFSAW
TAF COR
KSAW 211944Z 2118/2224 20014G22KT P6SM BKN120
     FM220800 21014G21KT P6SM -FZDZ OVC008 WS015/24045KT
     FM221400 22014G25KT P6SM BKN010
      AMD LTD TO CLD VIS AND WIND 2203/2211=



000
FTUS43 KMQT 211900 CCA
TAFCMX
TAF COR
KCMX 211942Z 2118/2224 21012G20KT P6SM BKN100
     FM220400 22015G22KT P6SM BKN100
     FM221000 24013G21KT P6SM OVC025
     FM221200 25014G22KT P6SM BKN010=



000
FTUS43 KMQT 212300
TAFSAW
TAF
KSAW 211939Z 2200/2224 20014G22KT P6SM BKN120
     FM220800 21014G21KT P6SM -FZDZ OVC008 WS015/24045KT
     FM221400 22014G25KT P6SM BKN010
      AMD LTD TO CLD VIS AND WIND 2203/2211=



000
FTUS43 KMQT 212300
TAFCMX
TAF
KCMX 211939Z 2200/2224 21012G20KT P6SM BKN100
     FM220400 22015G22KT P6SM BKN100
     FM221000 24013G21KT P6SM OVC025
     FM221200 25014G22KT P6SM BKN010=



000
FTUS43 KMQT 211100
TAFSAW
TAF
KSAW 211137Z 2112/2212 23005KT P6SM FEW110
     FM211700 20014G22KT P6SM BKN120
     FM220800 21013G21KT P6SM OVC020
      AMD LTD TO CLD VIS AND WIND 2203/2211=



000
FTUS43 KMQT 211100
TAFCMX
TAF
KCMX 211137Z 2112/2212 24008KT 5SM -SHSN BKN030
     FM211400 22010KT P6SM SCT120
     FM211900 21012G20KT P6SM BKN120
     FM220400 22015G22KT P6SM BKN100
     FM221000 24013G21KT P6SM OVC030=



000
FTUS43 KMQT 210500 AAA
TAFCMX
TAF AMD
KCMX 210551Z 2106/2206 30010KT 4SM -SHSN BKN025
      TEMPO 2106/2109 1SM -SHSN BKN010
     FM211300 24009KT P6SM BKN120
     FM211800 20015G25KT P6SM BKN120=



000
FTUS43 KMQT 210500
TAFSAW
TAF
KSAW 210527Z 2106/2206 26003KT P6SM SCT035
     FM211200 22006KT P6SM BKN120
     FM211800 20015G25KT P6SM BKN120
      AMD LTD TO CLD VIS AND WIND TIL 211100=



000
FTUS43 KMQT 210500
TAFCMX
TAF
KCMX 210527Z 2106/2206 30010KT 4SM -SHSN BKN025
     FM211300 24009KT P6SM BKN120
     FM211800 20015G25KT P6SM BKN120=



000
FTUS43 KMQT 210300 AAA
TAFCMX
TAF AMD
KCMX 210305Z 2103/2124 31013G19KT 3SM -SHSN BKN025
      TEMPO 2103/2106 1SM -SHSN BKN015
     FM210600 30010KT 4SM -SHSN BKN025
     FM211300 24009KT P6SM BKN120
     FM211800 20015G25KT P6SM BKN120=



000
FTUS43 KMQT 202300
TAFCMX
TAF
KCMX 202320Z 2100/2124 31013G19KT 3SM -SHSN BKN025
      TEMPO 2100/2104 1SM -SHSN BKN015
     FM210500 30010KT 4SM -SHSN BKN025
     FM211300 24009KT P6SM BKN120
     FM211800 20015G25KT P6SM BKN120=



000
FTUS43 KMQT 202300
TAFSAW
TAF
KSAW 202320Z 2100/2124 28003KT P6SM SCT030
     FM211200 22006KT P6SM BKN120
     FM211800 20015G25KT P6SM BKN120
      AMD LTD TO CLD VIS AND WIND 2103/2111=



000
FTUS43 KMQT 202200 AAA
TAFCMX
TAF AMD
KCMX 202237Z 2023/2118 31013G19KT 3SM -SHSN BKN025
      TEMPO 2023/2103 1SM -SHSN BKN015
     FM210500 30010KT 4SM -SHSN BKN025
     FM211300 26009KT P6SM BKN120=



000
FTUS43 KMQT 202000 AAA
TAFSAW
TAF AMD
KSAW 202059Z 2021/2118 30012KT P6SM VCSH BKN035
     FM210100 29008KT P6SM BKN035
     FM210500 26005KT P6SM SCT035
     FM211100 22006KT P6SM BKN120
      AMD LTD TO CLD VIS AND WIND 2103/2111=



000
FTUS43 KMQT 201700
TAFSAW
TAF
KSAW 201736Z 2018/2118 28012G18KT 5SM -SHSN BKN025
     FM202000 31012G18KT P6SM VCSH BKN035
     FM210100 29008KT P6SM BKN035
     FM210500 26005KT P6SM SCT035
     FM211100 22006KT P6SM BKN120
      AMD LTD TO CLD VIS AND WIND 2103/2111=



000
FTUS43 KMQT 201700
TAFCMX
TAF
KCMX 201736Z 2018/2118 32015G23KT 1SM -SHSN BLSN BKN025
      TEMPO 2018/2021 3SM -SHSN
     FM202100 31013G19KT 3SM -SHSN BKN025
     FM210500 30010KT 4SM -SHSN BKN025
     FM211300 26009KT P6SM BKN120=



000
FTUS43 KMQT 201500 AAA
TAFCMX
TAF AMD
KCMX 201525Z 2015/2112 32015G23KT 2SM -SHSN BLSN BKN025
     FM202100 31013G19KT 3SM -SHSN OVC015
     FM210400 30010KT 4SM -SHSN OVC015
     FM211100 26009KT 6SM -SHSN OVC020=



000
FTUS43 KMQT 201200 AAA
TAFSAW
TAF AMD
KSAW 201259Z 2013/2112 28008KT P6SM VCSH BKN035
      TEMPO 2013/2015 4SM -SHSN BKN019
     FM201700 31012G18KT P6SM VCSH BKN035
     FM202300 29009KT P6SM BKN035
     FM210400 26006KT P6SM SCT035
      AMD LTD TO CLD VIS AND WIND 2103/2111=



    US Dept of Commerce
    National Oceanic and Atmospheric Administration
    National Weather Service
    1325 East West Highway
    Silver Spring, MD 20910
    Page Author: NWS Internet Services Team
Disclaimer
Information Quality
Credits
Glossary
Privacy Policy
Freedom of Information Act (FOIA)
About Us
Career Opportunities